createdAt,value
2023-04-15T06:57:25.554Z,2.5459
2023-04-15T06:57:25.554Z,2.5382
2023-04-15T06:58:27.939Z,4.5208
2023-04-15T06:59:30.894Z,4.7134
2023-04-15T07:00:33.854Z,4.8418
2023-04-15T07:01:36.817Z,4.7330
2023-04-15T07:02:39.813Z,4.7024
2023-04-15T07:03:42.653Z,4.7713
2023-04-15T07:04:45.613Z,4.5645
2023-04-15T07:05:48.578Z,4.5505
2023-04-15T07:06:51.572Z,4.3952
2023-04-15T07:07:54.519Z,4.4868
2023-04-15T07:08:57.420Z,4.5580
2023-04-15T07:10:00.359Z,4.5983
2023-04-15T07:11:03.296Z,4.5957
2023-04-15T07:12:06.232Z,4.2114
2023-04-15T07:13:09.248Z,4.2582
2023-04-15T07:14:12.122Z,4.3145
2023-04-15T07:15:15.077Z,4.1761
2023-04-15T07:16:18.075Z,4.3807
2023-04-15T07:17:21.004Z,4.2590
2023-04-15T07:18:23.910Z,4.3040
2023-04-15T07:19:26.901Z,4.2047
2023-04-15T07:20:29.814Z,4.4113
2023-04-15T07:21:32.771Z,4.4690
2023-04-15T07:22:35.705Z,4.4243
2023-04-15T07:23:38.638Z,4.5524
2023-04-15T07:24:41.750Z,4.7438
2023-04-15T07:25:44.616Z,4.7303
2023-04-15T07:26:47.585Z,4.6223
2023-04-15T07:27:50.533Z,4.4683
2023-04-15T07:28:53.445Z,4.8721
2023-04-15T07:29:56.442Z,4.5358
2023-04-15T07:30:59.424Z,4.1717
2023-04-15T07:32:02.498Z,4.1381
2023-04-15T07:33:05.233Z,3.6973
2023-04-15T07:34:08.193Z,4.2291
2023-04-15T07:35:11.144Z,4.4518
2023-04-15T07:36:14.089Z,4.2588
2023-04-15T07:37:17.105Z,4.6457
2023-04-15T07:38:20.023Z,4.0246
2023-04-15T07:39:22.921Z,3.8987
2023-04-15T07:40:25.868Z,4.1758
2023-04-15T07:41:28.825Z,4.3727
2023-04-15T07:42:31.781Z,4.0420
2023-04-15T07:43:34.733Z,4.0605
2023-04-15T07:44:37.675Z,4.4432
2023-04-15T07:45:40.600Z,4.1327
2023-04-15T07:46:43.668Z,3.9500
2023-04-15T07:47:46.608Z,3.5078
2023-04-15T07:48:49.461Z,3.7182
2023-04-15T07:49:52.421Z,3.6100
2023-04-15T07:50:55.411Z,3.5029
2023-04-15T07:51:58.288Z,3.7101
2023-04-15T07:53:01.251Z,3.4696
2023-04-15T07:54:04.189Z,3.7861
2023-04-15T07:55:07.141Z,3.5223
2023-04-15T07:56:10.110Z,3.9548
2023-04-15T07:57:13.039Z,4.2643
2023-04-15T07:58:15.990Z,4.3581
2023-04-15T07:59:18.927Z,3.9151
2023-04-15T08:00:21.871Z,4.0752
2023-04-15T08:01:24.812Z,4.1360
2023-04-15T08:02:27.979Z,4.4377
2023-04-15T08:03:30.942Z,4.2357
2023-04-15T08:04:33.792Z,3.6677
2023-04-15T08:05:36.616Z,3.9277
2023-04-15T08:06:39.530Z,3.9786
2023-04-15T08:07:42.497Z,4.0040
2023-04-15T08:08:45.414Z,4.2854
2023-04-15T08:09:48.353Z,4.1098
2023-04-15T08:10:52.675Z,4.3416
2023-04-15T08:11:54.271Z,3.7351
2023-04-15T08:12:57.166Z,3.7327
2023-04-15T08:14:00.127Z,3.8053
2023-04-15T08:15:03.074Z,3.3500
2023-04-15T08:16:06.013Z,3.4621
2023-04-15T08:17:08.948Z,3.5941
2023-04-15T08:18:11.889Z,3.3826
2023-04-15T08:19:14.819Z,3.4428
2023-04-15T08:20:17.790Z,3.1191
2023-04-15T08:21:20.708Z,3.2441
2023-04-15T08:22:23.642Z,3.2889
2023-04-15T08:23:26.598Z,3.2902
2023-04-15T08:24:29.577Z,3.1170
2023-04-15T08:25:32.502Z,3.4536
2023-04-15T08:26:35.428Z,2.6454
2023-04-15T08:27:38.382Z,2.1618
2023-04-15T08:28:41.350Z,2.1411
2023-04-15T08:29:44.254Z,2.0650
2023-04-15T08:30:47.212Z,2.0363
2023-04-15T08:31:50.241Z,2.4062
2023-04-15T08:32:53.158Z,1.9706
2023-04-15T08:33:56.043Z,1.8898
2023-04-15T08:34:59.019Z,1.8557
2023-04-15T08:36:01.936Z,1.7244
2023-04-15T08:37:04.886Z,2.0797
2023-04-15T08:38:07.840Z,2.2508
2023-04-15T08:39:10.798Z,2.0040
2023-04-15T08:40:13.834Z,2.0224
2023-04-15T08:41:16.690Z,1.9909
2023-04-15T08:42:19.619Z,1.7865
2023-04-15T08:43:22.563Z,1.7675
2023-04-15T08:44:25.512Z,2.1201
2023-04-15T08:45:28.465Z,1.7844
2023-04-15T08:46:31.413Z,2.1985
2023-04-15T08:47:34.485Z,21.3395
2023-04-15T08:48:37.302Z,24.6132
2023-04-15T08:49:40.238Z,4.1438
2023-04-15T08:50:43.211Z,3.7591
2023-04-15T08:51:46.217Z,2.1808
2023-04-15T08:52:49.081Z,1.7635
2023-04-15T08:53:52.034Z,1.7996
2023-04-15T08:54:55.068Z,1.9104
2023-04-15T08:55:57.958Z,2.1049
2023-04-15T08:57:00.865Z,2.2844
2023-04-15T08:58:03.852Z,2.2810
2023-04-15T08:59:06.783Z,2.0578
2023-04-15T09:00:09.702Z,2.2176
2023-04-15T09:01:12.708Z,2.3198
2023-04-15T09:02:15.617Z,2.2601
2023-04-15T09:03:18.595Z,1.8672
2023-04-15T09:04:21.697Z,1.9009
2023-04-15T09:05:24.461Z,2.0703
2023-04-15T09:06:27.455Z,2.1443
2023-04-15T09:07:30.409Z,2.0106
2023-04-15T09:08:33.289Z,2.0602
2023-04-15T09:09:36.242Z,1.8265
2023-04-15T09:10:39.274Z,1.7793
2023-04-15T09:11:42.151Z,2.0885
2023-04-15T09:12:45.091Z,2.1916
2023-04-15T09:13:48.040Z,1.8481
2023-04-15T09:14:50.975Z,2.1114
2023-04-15T09:15:53.954Z,1.9685
2023-04-15T09:16:57.164Z,2.4704
2023-04-15T09:18:00.089Z,2.1026
2023-04-15T09:19:02.927Z,1.8777
2023-04-15T09:20:05.743Z,1.8623
2023-04-15T09:21:08.680Z,2.0640
2023-04-15T09:22:11.645Z,2.0067
2023-04-15T09:23:14.600Z,2.0896
2023-04-15T09:24:17.530Z,2.1103
2023-04-15T09:25:20.537Z,2.0354
2023-04-15T09:26:23.479Z,2.0618
2023-04-15T09:27:26.375Z,2.1819
2023-04-15T09:28:29.341Z,2.2996
2023-04-15T09:29:32.280Z,2.3567
2023-04-15T09:30:35.250Z,2.3045
2023-04-15T09:31:38.160Z,2.3173
2023-04-15T09:32:41.142Z,2.2174
2023-04-15T09:33:44.061Z,2.4508
2023-04-15T09:34:47.078Z,2.5997
2023-04-15T09:35:50.201Z,2.2359
2023-04-15T09:36:52.901Z,2.5840
2023-04-15T09:37:55.852Z,2.7042
2023-04-15T09:38:58.833Z,2.5458
2023-04-15T09:40:01.787Z,2.7075
2023-04-15T09:41:04.770Z,2.8498
2023-04-15T09:42:07.660Z,2.5871
2023-04-15T09:43:10.704Z,2.3695
2023-04-15T09:44:13.574Z,2.5439
2023-04-15T09:45:16.521Z,2.5062
2023-04-15T09:46:19.475Z,2.7359
2023-04-15T09:47:22.401Z,3.0653
2023-04-15T09:48:25.329Z,3.1482
2023-04-15T09:49:28.323Z,2.4791
2023-04-15T09:50:31.256Z,2.8117
2023-04-15T09:51:34.198Z,2.4839
2023-04-15T09:52:37.115Z,2.5436
2023-04-15T09:53:40.057Z,2.4248
2023-04-15T09:54:43.032Z,2.1547
2023-04-15T09:55:45.963Z,2.2511
2023-04-15T09:56:48.898Z,2.3025
2023-04-15T09:57:51.860Z,2.3767
2023-04-15T09:58:54.802Z,2.3082
2023-04-15T09:59:57.761Z,1.6004
2023-04-15T10:01:00.726Z,1.6404
2023-04-15T10:02:03.651Z,1.7576
2023-04-15T10:03:06.710Z,2.0162
2023-04-15T10:04:09.601Z,2.0650
2023-04-15T10:05:12.527Z,2.1664
2023-04-15T10:06:15.521Z,2.0198
2023-04-15T10:07:18.390Z,2.1503
2023-04-15T10:08:21.422Z,1.4072
2023-04-15T10:09:24.321Z,1.6772
2023-04-15T10:10:27.250Z,1.9417
2023-04-15T10:11:31.567Z,1.9969
2023-04-15T10:12:33.132Z,1.5952
2023-04-15T10:13:36.151Z,1.5096
2023-04-15T10:14:39.119Z,1.6119
2023-04-15T10:15:42.011Z,1.4292
2023-04-15T10:16:44.959Z,1.4231
2023-04-15T10:17:47.884Z,1.4047
2023-04-15T10:18:50.862Z,1.3840
2023-04-15T10:19:53.784Z,1.2914
2023-04-15T10:20:56.757Z,1.5854
2023-04-15T10:21:59.721Z,1.7233
2023-04-15T10:23:02.627Z,1.4581
2023-04-15T10:24:05.571Z,1.4562
2023-04-15T10:25:08.526Z,1.6521
2023-04-15T10:26:11.439Z,1.5579
2023-04-15T10:27:14.452Z,1.7823
2023-04-15T10:28:17.356Z,1.4908
2023-04-15T10:29:20.308Z,1.4885
2023-04-15T10:30:23.266Z,1.3983
2023-04-15T10:31:26.277Z,1.4402
2023-04-15T10:32:29.144Z,1.5329
2023-04-15T10:33:32.128Z,1.7442
2023-04-15T10:34:35.074Z,1.6403
2023-04-15T10:35:37.989Z,1.5725
2023-04-15T10:36:40.932Z,1.5209
2023-04-15T10:37:43.938Z,1.3853
2023-04-15T10:38:46.896Z,1.5763
2023-04-15T10:39:49.792Z,1.4514
2023-04-15T10:40:52.717Z,1.4080
2023-04-15T10:41:55.706Z,1.4967
2023-04-15T10:42:58.616Z,1.5137
2023-04-15T10:44:01.864Z,1.3843
2023-04-15T10:45:04.519Z,1.3559
2023-04-15T10:46:07.485Z,1.2580
2023-04-15T10:47:10.407Z,1.2947
2023-04-15T10:48:13.430Z,1.2439
2023-04-15T10:49:16.324Z,1.3347
2023-04-15T10:50:19.264Z,1.2346
2023-04-15T10:51:22.259Z,1.2206
2023-04-15T10:52:25.159Z,1.2068
2023-04-15T10:53:28.108Z,0.9848
2023-04-15T10:54:31.059Z,1.0328
2023-04-15T10:55:34.036Z,1.1178
2023-04-15T10:56:36.952Z,1.0703
2023-04-15T10:57:39.893Z,1.3316
2023-04-15T10:58:42.853Z,1.3871
2023-04-15T10:59:45.785Z,1.3889
2023-04-15T11:00:48.740Z,1.3596
2023-04-15T11:01:51.751Z,1.4361
2023-04-15T11:02:54.699Z,1.2651
2023-04-15T11:03:57.743Z,1.2240
2023-04-15T11:05:00.555Z,1.4246
2023-04-15T11:06:03.465Z,1.2257
2023-04-15T11:07:06.460Z,1.1857
2023-04-15T11:08:09.345Z,1.1717
2023-04-15T11:09:12.308Z,1.0967
2023-04-15T11:10:15.255Z,0.9099
2023-04-15T11:11:18.260Z,0.8549
2023-04-15T11:12:21.152Z,0.6632
2023-04-15T11:13:24.101Z,0.6946
2023-04-15T11:14:27.035Z,0.6136
2023-04-15T11:15:29.995Z,0.4683
2023-04-15T11:16:33.019Z,0.5845
2023-04-15T11:17:35.935Z,0.5580
2023-04-15T11:18:38.865Z,0.5295
2023-04-15T11:19:41.787Z,0.4779
2023-04-15T11:20:44.731Z,0.5652
2023-04-15T11:21:47.711Z,0.4583
2023-04-15T11:22:50.724Z,0.4656
2023-04-15T11:23:53.605Z,0.4895
2023-04-15T11:24:56.562Z,0.3807
2023-04-15T11:25:59.517Z,0.3540
2023-04-15T11:27:02.415Z,0.4339
2023-04-15T11:28:05.376Z,0.3126
2023-04-15T11:29:08.334Z,0.4143
2023-04-15T11:30:11.258Z,0.4022
2023-04-15T11:31:14.228Z,0.3918
2023-04-15T11:32:17.222Z,0.4824
2023-04-15T11:33:20.181Z,0.3271
2023-04-15T11:34:23.484Z,0.4687
2023-04-15T11:35:26.082Z,0.5174
2023-04-15T11:36:29.036Z,0.4113
2023-04-15T11:37:32.009Z,0.3598
2023-04-15T11:38:34.945Z,0.5451
2023-04-15T11:39:37.890Z,0.4896
2023-04-15T11:40:40.898Z,0.5043
2023-04-15T11:41:43.793Z,0.4698
2023-04-15T11:42:49.499Z,0.4443
2023-04-15T11:43:49.727Z,0.4821
2023-04-15T11:44:52.683Z,0.3911
2023-04-15T11:45:55.717Z,0.7348
2023-04-15T11:46:58.576Z,0.6426
2023-04-15T11:48:01.505Z,0.4411
2023-04-15T11:49:04.473Z,0.5043
2023-04-15T11:50:07.441Z,0.4188
2023-04-15T11:51:10.392Z,0.4071
2023-04-15T11:52:13.337Z,0.4989
2023-04-15T11:53:16.300Z,0.5254
2023-04-15T11:54:19.266Z,0.7166
2023-04-15T11:55:22.202Z,0.7392
2023-04-15T11:56:25.169Z,0.4569
2023-04-15T11:57:28.114Z,0.4277
2023-04-15T11:58:31.056Z,0.3433
2023-04-15T11:59:44.423Z,0.4721
2023-04-15T12:00:36.959Z,0.5037
2023-04-15T12:01:39.968Z,0.7641
2023-04-15T12:02:42.946Z,9.5808
2023-04-15T12:03:46.210Z,2.2102
2023-04-15T12:04:48.910Z,0.8410
2023-04-15T12:05:51.713Z,0.6574
2023-04-15T12:06:54.649Z,0.4311
2023-04-15T12:07:57.661Z,0.3466
2023-04-15T12:09:00.559Z,0.4246
2023-04-15T12:10:03.499Z,0.3370
2023-04-15T12:11:06.453Z,0.3234
2023-04-15T12:12:09.402Z,0.3830
2023-04-15T12:13:12.343Z,0.4052
2023-04-15T12:14:15.341Z,0.4839
2023-04-15T12:15:18.240Z,0.3714
2023-04-15T12:16:21.228Z,0.3191
2023-04-15T12:17:24.176Z,0.4146
2023-04-15T12:18:27.094Z,0.4171
2023-04-15T12:19:30.078Z,0.3016
2023-04-15T12:20:33.002Z,0.4462
2023-04-15T12:21:35.927Z,0.4691
2023-04-15T12:22:38.901Z,0.6517
2023-04-15T12:23:41.855Z,0.7754
2023-04-15T12:24:44.803Z,0.5644
2023-04-15T12:25:47.735Z,0.4669
2023-04-15T12:26:50.692Z,0.4212
2023-04-15T12:27:53.700Z,0.2149
2023-04-15T12:28:56.605Z,0.4548
2023-04-15T12:29:59.650Z,0.3927
2023-04-15T12:31:02.512Z,0.3408
2023-04-15T12:32:05.456Z,0.4315
2023-04-15T12:33:08.454Z,0.3519
2023-04-15T12:34:11.326Z,0.4364
2023-04-15T12:35:14.298Z,0.4530
2023-04-15T12:36:17.265Z,0.3275
2023-04-15T12:37:20.201Z,0.3796
2023-04-15T12:38:23.146Z,0.4631
2023-04-15T12:39:26.830Z,0.4862
2023-04-15T12:40:29.049Z,0.3497
2023-04-15T12:41:32.015Z,0.3469
2023-04-15T12:42:34.946Z,0.4129
2023-04-15T12:43:37.950Z,0.4332
2023-04-15T12:44:40.861Z,1.2555
2023-04-15T12:45:43.790Z,1.4681
2023-04-15T12:46:46.775Z,1.2404
2023-04-15T12:47:49.735Z,0.8082
2023-04-15T12:48:52.644Z,0.8076
2023-04-15T12:49:55.575Z,0.7227
2023-04-15T12:50:58.548Z,0.5185
2023-04-15T12:52:01.488Z,0.4671
2023-04-15T12:53:04.450Z,0.5333
2023-04-15T12:54:07.451Z,0.4796
2023-04-15T12:55:10.356Z,0.5813
2023-04-15T12:56:13.309Z,0.5752
2023-04-15T12:57:16.241Z,0.4058
2023-04-15T12:58:19.204Z,0.5104
2023-04-15T12:59:22.160Z,0.3791
2023-04-15T13:00:25.130Z,0.4839
2023-04-15T13:01:28.078Z,0.5047
2023-04-15T13:02:31.089Z,0.5992
2023-04-15T13:03:34.309Z,0.5223
2023-04-15T13:04:36.966Z,0.4051
2023-04-15T13:05:39.877Z,0.5853
2023-04-15T13:06:42.803Z,0.5222
2023-04-15T13:07:45.769Z,0.4274
2023-04-15T13:08:58.335Z,0.4017
2023-04-15T13:09:51.724Z,0.5469
2023-04-15T13:10:54.583Z,0.6637
2023-04-15T13:11:57.646Z,0.7250
2023-04-15T13:13:00.486Z,0.6841
2023-04-15T13:14:03.585Z,0.5989
2023-04-15T13:15:06.409Z,0.7219
2023-04-15T13:16:09.387Z,0.6736
2023-04-15T13:17:12.282Z,0.6634
2023-04-15T13:18:15.257Z,0.7056
2023-04-15T13:19:18.263Z,0.6305
2023-04-15T13:20:21.175Z,0.5523
2023-04-15T13:21:24.110Z,0.6669
2023-04-15T13:22:27.087Z,0.7935
2023-04-15T13:23:30.015Z,0.7744
2023-04-15T13:24:32.990Z,0.7936
2023-04-15T13:25:35.932Z,0.5894
2023-04-15T13:26:38.913Z,0.5744
2023-04-15T13:27:41.850Z,0.5192
2023-04-15T13:28:44.809Z,0.5653
2023-04-15T13:29:47.760Z,0.5790
2023-04-15T13:30:50.712Z,0.5694
2023-04-15T13:31:53.726Z,0.5481
2023-04-15T13:32:56.645Z,0.5466
2023-04-15T13:33:59.593Z,0.4446
2023-04-15T13:35:02.535Z,0.4496
2023-04-15T13:36:05.554Z,0.4332
2023-04-15T13:37:08.453Z,0.4308
2023-04-15T13:38:11.446Z,0.5913
2023-04-15T13:39:14.361Z,0.4462
2023-04-15T13:40:17.293Z,0.5137
2023-04-15T13:41:20.238Z,0.5107
2023-04-15T13:42:23.208Z,0.6135
2023-04-15T13:43:26.177Z,0.4813
2023-04-15T13:44:29.105Z,0.5664
2023-04-15T13:45:32.132Z,0.5073
2023-04-15T13:46:35.017Z,0.5608
2023-04-15T13:47:38.024Z,0.5410
2023-04-15T13:48:40.946Z,0.5027
2023-04-15T13:49:43.915Z,0.5251
2023-04-15T13:50:46.827Z,0.4824
2023-04-15T13:51:49.796Z,0.6052
2023-04-15T13:52:52.727Z,0.6351
2023-04-15T13:53:55.733Z,0.5737
2023-04-15T13:55:07.050Z,0.7306
2023-04-15T13:56:01.639Z,0.8598
2023-04-15T13:57:04.571Z,0.7092
2023-04-15T13:58:07.517Z,0.6595
2023-04-15T13:59:10.470Z,0.6264
2023-04-15T14:00:13.413Z,0.5172
2023-04-15T14:01:16.421Z,0.5596
2023-04-15T14:02:19.442Z,0.5562
2023-04-15T14:03:22.377Z,0.4810
2023-04-15T14:04:25.342Z,0.4901
2023-04-15T14:05:28.201Z,0.5817
2023-04-15T14:06:31.147Z,0.5728
2023-04-15T14:07:34.096Z,0.4948
2023-04-15T14:08:37.056Z,0.5154
2023-04-15T14:09:43.357Z,0.4956
2023-04-15T14:10:43.015Z,0.5694
2023-04-15T14:11:45.943Z,0.6461
2023-04-15T14:12:48.906Z,0.7475
2023-04-15T14:13:51.822Z,0.8436
2023-04-15T14:14:54.789Z,0.6708
2023-04-15T14:15:57.764Z,0.6082
2023-04-15T14:17:00.779Z,0.7213
2023-04-15T14:18:03.699Z,0.4870
2023-04-15T14:19:06.775Z,0.6978
2023-04-15T14:20:09.590Z,0.9030
2023-04-15T14:21:12.544Z,1.0168
2023-04-15T14:22:15.484Z,0.9362
2023-04-15T14:23:18.449Z,0.8216
2023-04-15T14:24:21.398Z,0.7890
2023-04-15T14:25:33.377Z,0.8019
2023-04-15T14:26:27.342Z,0.6810
2023-04-15T14:27:30.281Z,0.5792
2023-04-15T14:28:33.226Z,0.6393
2023-04-15T14:29:36.309Z,0.6982
2023-04-15T14:30:39.224Z,0.6641
2023-04-15T14:31:42.103Z,0.6022
2023-04-15T14:32:45.089Z,0.7082
2023-04-15T14:33:47.995Z,0.7510
2023-04-15T14:34:50.938Z,0.5578
2023-04-15T14:35:53.917Z,0.7896
2023-04-15T14:36:56.866Z,0.8154
2023-04-15T14:37:59.816Z,9.3169
2023-04-15T14:39:02.769Z,21.8779
2023-04-15T14:40:05.742Z,18.1451
2023-04-15T14:41:08.712Z,3.8214
2023-04-15T14:42:11.627Z,1.4668
2023-04-15T14:43:14.585Z,0.7671
2023-04-15T14:44:17.619Z,0.6699
2023-04-15T14:45:20.509Z,0.6230
2023-04-15T14:46:23.467Z,0.7156
2023-04-15T14:47:26.435Z,0.8896
2023-04-15T14:48:29.379Z,7.0295
2023-04-15T14:49:32.333Z,8.6315
2023-04-15T14:50:35.298Z,19.0850
2023-04-15T14:51:39.656Z,10.9562
2023-04-15T14:52:41.274Z,37.5898
2023-04-15T14:53:44.136Z,9.0889
2023-04-15T14:54:47.107Z,1.9764
2023-04-15T14:55:50.066Z,1.3636
2023-04-15T14:56:53.014Z,0.7895
2023-04-15T14:57:55.958Z,0.5448
2023-04-15T14:58:58.933Z,0.5732
2023-04-15T15:00:01.991Z,0.4966
2023-04-15T15:01:04.860Z,0.5609
2023-04-15T15:02:07.886Z,0.7066
2023-04-15T15:03:10.789Z,0.5438
2023-04-15T15:04:13.776Z,0.5037
2023-04-15T15:05:16.759Z,0.5037
2023-04-15T15:06:19.592Z,0.4427
2023-04-15T15:07:22.544Z,0.4593
2023-04-15T15:08:25.498Z,0.6134
2023-04-15T15:09:28.459Z,0.4560
2023-04-15T15:10:46.745Z,0.6907
2023-04-15T15:11:34.365Z,0.5077
2023-04-15T15:12:37.323Z,0.5336
2023-04-15T15:13:40.274Z,0.5371
2023-04-15T15:14:43.221Z,0.5906
2023-04-15T15:15:46.201Z,0.7212
2023-04-15T15:16:49.115Z,0.5848
2023-04-15T15:17:52.150Z,0.6740
2023-04-15T15:18:55.027Z,0.7212
2023-04-15T15:19:58.021Z,0.5637
2023-04-15T15:21:00.936Z,0.6398
2023-04-15T15:22:03.880Z,0.8402
2023-04-15T15:23:06.864Z,0.8409
2023-04-15T15:24:09.787Z,0.8647
2023-04-15T15:25:12.757Z,0.9589
2023-04-15T15:26:15.756Z,0.6878
2023-04-15T15:27:18.651Z,0.6355
2023-04-15T15:28:21.596Z,0.8075
2023-04-15T15:29:24.558Z,0.8590
2023-04-15T15:30:27.504Z,0.8020
2023-04-15T15:31:30.547Z,1.0856
2023-04-15T15:32:33.440Z,0.6588
2023-04-15T15:33:36.360Z,0.7875
2023-04-15T15:34:39.308Z,0.5345
2023-04-15T15:35:42.299Z,0.5418
2023-04-15T15:36:45.350Z,0.5959
2023-04-15T15:37:48.171Z,0.6098
2023-04-15T15:38:51.282Z,0.6471
2023-04-15T15:39:54.296Z,0.7483
2023-04-15T15:40:57.178Z,0.7090
2023-04-15T15:42:00.096Z,0.5814
2023-04-15T15:43:03.073Z,0.5998
2023-04-15T15:44:05.953Z,0.5975
2023-04-15T15:45:08.971Z,0.6972
2023-04-15T15:46:11.927Z,0.5094
2023-04-15T15:47:14.808Z,0.6315
2023-04-15T15:48:17.750Z,0.5933
2023-04-15T15:49:20.721Z,0.6049
2023-04-15T15:50:23.743Z,0.6065
2023-04-15T15:51:26.660Z,0.7177
2023-04-15T15:52:29.607Z,0.5911
2023-04-15T15:53:32.524Z,0.6135
2023-04-15T15:54:35.479Z,0.8845
2023-04-15T15:55:38.547Z,0.6618
2023-04-15T15:56:41.401Z,0.7328
2023-04-15T15:57:44.362Z,0.7343
2023-04-15T15:58:47.297Z,0.6009
2023-04-15T15:59:51.321Z,0.5017
2023-04-15T16:00:53.221Z,0.6538
2023-04-15T16:01:56.207Z,0.8413
2023-04-15T16:04:02.288Z,0.6629
2023-04-15T16:05:04.993Z,0.7112
2023-04-15T16:06:07.974Z,0.6910
2023-04-15T16:07:10.908Z,0.6075
2023-04-15T16:08:13.865Z,0.6056
2023-04-15T16:09:16.822Z,0.8879
2023-04-15T16:10:19.751Z,1.2289
2023-04-15T16:11:22.713Z,1.4868
2023-04-15T16:12:25.781Z,1.5887
2023-04-15T16:13:28.753Z,1.4597
2023-04-15T16:14:31.556Z,1.8239
2023-04-15T16:15:34.543Z,1.7177
2023-04-15T16:16:37.559Z,1.6172
2023-04-15T16:17:40.429Z,1.4591
2023-04-15T16:18:43.349Z,1.3792
2023-04-15T16:19:58.019Z,1.2793
2023-04-15T16:20:49.281Z,1.2434
2023-04-15T16:21:52.205Z,1.1170
2023-04-15T16:22:55.188Z,1.2360
2023-04-15T16:23:58.138Z,1.0875
2023-04-15T16:25:01.085Z,1.0799
2023-04-15T16:26:04.047Z,1.0321
2023-04-15T16:27:07.004Z,0.9699
2023-04-15T16:28:22.590Z,0.8778
2023-04-15T16:29:12.886Z,0.9503
2023-04-15T16:30:15.917Z,0.9717
2023-04-15T16:31:18.793Z,0.8751
2023-04-15T16:32:21.825Z,0.8662
2023-04-15T16:33:24.728Z,1.0482
2023-04-15T16:34:27.635Z,1.1292
2023-04-15T16:35:31.764Z,0.9826
2023-04-15T16:36:33.523Z,0.7859
2023-04-15T16:37:36.499Z,0.8220
2023-04-15T16:38:39.421Z,0.6208
2023-04-15T16:39:42.363Z,0.7519
2023-04-15T16:40:45.320Z,0.8199
2023-04-15T16:41:48.269Z,0.7625
2023-04-15T16:42:51.277Z,0.6854
2023-04-15T16:43:54.150Z,0.6681
2023-04-15T16:44:57.106Z,0.6637
2023-04-15T16:46:00.076Z,0.6879
2023-04-15T16:47:03.027Z,0.6515
2023-04-15T16:48:05.975Z,0.6161
2023-04-15T16:49:08.870Z,0.6394
2023-04-15T16:50:11.869Z,0.7273
2023-04-15T16:51:14.767Z,0.7438
2023-04-15T16:52:17.707Z,0.6471
2023-04-15T16:53:20.642Z,0.7438
2023-04-15T16:54:23.658Z,0.6956
2023-04-15T16:55:26.570Z,0.9016
2023-04-15T16:56:29.533Z,0.9369
2023-04-15T16:58:00.827Z,0.9659
2023-04-15T16:58:35.426Z,0.9402
2023-04-15T16:59:38.337Z,1.0175
2023-04-15T17:00:41.310Z,1.0513
2023-04-15T17:01:44.235Z,0.9447
2023-04-15T17:02:47.328Z,1.0326
2023-04-15T17:03:50.336Z,1.1633
2023-04-15T17:04:53.067Z,1.1923
2023-04-15T17:05:56.034Z,1.4108
2023-04-15T17:06:58.988Z,1.3293
2023-04-15T17:08:02.005Z,1.0428
2023-04-15T17:09:05.471Z,0.9402
2023-04-15T17:10:07.837Z,1.1052
2023-04-15T17:11:10.847Z,1.1129
2023-04-15T17:12:13.757Z,1.0361
2023-04-15T17:13:16.691Z,1.1307
2023-04-15T17:14:19.698Z,0.8586
2023-04-15T17:15:22.625Z,0.9749
2023-04-15T17:16:25.656Z,0.8043
2023-04-15T17:17:28.540Z,1.1112
2023-04-15T17:18:31.474Z,1.0031
2023-04-15T17:19:34.422Z,1.0581
2023-04-15T17:20:37.372Z,1.0187
2023-04-15T17:21:40.300Z,1.0717
2023-04-15T17:22:43.255Z,0.9638
2023-04-15T17:23:46.228Z,0.9041
2023-04-15T17:24:49.169Z,0.9404
2023-04-15T17:25:52.123Z,0.8817
2023-04-15T17:26:55.078Z,0.7944
2023-04-15T17:27:58.030Z,0.9884
2023-04-15T17:29:01.030Z,0.9437
2023-04-15T17:30:04.047Z,1.1385
2023-04-15T17:31:06.953Z,1.0620
2023-04-15T17:32:09.860Z,0.9572
2023-04-15T17:33:55.303Z,0.9077
2023-04-15T17:35:18.744Z,1.2952
2023-04-15T17:36:21.664Z,1.0726
2023-04-15T17:37:24.620Z,1.0114
2023-04-15T17:38:27.578Z,1.0240
2023-04-15T17:39:30.619Z,0.9528
2023-04-15T17:40:33.483Z,1.1311
2023-04-15T17:41:36.437Z,1.0981
2023-04-15T17:42:39.408Z,1.2694
2023-04-15T17:43:42.351Z,1.0813
2023-04-15T17:44:45.359Z,1.2990
2023-04-15T17:45:48.477Z,1.2660
2023-04-15T17:46:51.268Z,1.2806
2023-04-15T17:47:54.210Z,1.4174
2023-04-15T17:48:57.126Z,1.3355
2023-04-15T17:50:00.151Z,1.1191
2023-04-15T17:51:03.102Z,1.1094
2023-04-15T17:52:06.016Z,1.0742
2023-04-15T17:53:08.963Z,1.1435
2023-04-15T17:54:12.143Z,1.2972
2023-04-15T17:55:14.912Z,1.2486
2023-04-15T17:56:17.933Z,1.7238
2023-04-15T17:57:20.780Z,2.1627
2023-04-15T17:58:23.799Z,1.8134
2023-04-15T17:59:26.722Z,1.9276
2023-04-15T18:00:29.644Z,1.8323
2023-04-15T18:01:32.637Z,1.6905
2023-04-15T18:02:37.410Z,1.5300
2023-04-15T18:03:38.638Z,1.4930
2023-04-15T18:04:41.675Z,1.1281
2023-04-15T18:05:44.397Z,1.5190
2023-04-15T18:06:47.382Z,1.4225
2023-04-15T18:07:50.342Z,1.0858
2023-04-15T18:08:53.287Z,1.3195
2023-04-15T18:09:56.224Z,1.3934
2023-04-15T18:10:59.216Z,1.1596
2023-04-15T18:12:02.281Z,1.3246
2023-04-15T18:13:05.099Z,1.3512
2023-04-15T18:14:08.073Z,1.3210
2023-04-15T18:15:11.009Z,1.3960
2023-04-15T18:16:14.055Z,1.7104
2023-04-15T18:17:16.964Z,1.6354
2023-04-15T18:18:19.875Z,1.7484
2023-04-15T18:19:22.819Z,1.5452
2023-04-15T18:20:25.770Z,1.6685
2023-04-15T18:21:28.752Z,1.9434
2023-04-15T18:22:31.716Z,2.0064
2023-04-15T18:23:34.711Z,2.0160
2023-04-15T18:24:37.680Z,1.7386
2023-04-15T18:25:40.542Z,1.7484
2023-04-15T18:26:43.510Z,1.8351
2023-04-15T18:27:46.495Z,1.7187
2023-04-15T18:28:49.395Z,1.7631
2023-04-15T18:29:52.380Z,1.8332
2023-04-15T18:30:55.310Z,1.7562
2023-04-15T18:31:58.369Z,2.1914
2023-04-15T18:33:01.264Z,4.7070
2023-04-15T18:34:04.346Z,6.0448
2023-04-15T18:35:07.095Z,8.0781
2023-04-15T18:36:10.094Z,10.1838
2023-04-15T18:37:13.005Z,12.9933
2023-04-15T18:38:15.954Z,13.2348
2023-04-15T18:39:18.899Z,7.3096
2023-04-15T18:40:21.849Z,4.1865
2023-04-15T18:41:24.813Z,1.4409
2023-04-15T18:42:27.775Z,1.1871
2023-04-15T18:43:30.726Z,1.1390
2023-04-15T18:44:33.668Z,0.9823
2023-04-15T18:45:36.659Z,0.8543
2023-04-15T18:46:39.565Z,0.8482
2023-04-15T18:47:42.557Z,0.8492
2023-04-15T18:48:45.471Z,0.8886
2023-04-15T18:49:48.500Z,1.1629
2023-04-15T18:50:51.385Z,0.9950
2023-04-15T18:51:54.306Z,0.9873
2023-04-15T18:52:57.273Z,13.1266
2023-04-15T18:54:00.288Z,21.0378
2023-04-15T18:55:03.319Z,8.8268
2023-04-15T18:56:06.302Z,3.6142
2023-04-15T18:57:09.108Z,2.2178
2023-04-15T18:58:12.048Z,1.8738
2023-04-15T18:59:29.151Z,1.2073
2023-04-15T19:00:17.905Z,1.1176
2023-04-15T19:01:20.882Z,1.0752
2023-04-15T19:02:23.905Z,1.1637
2023-04-15T19:03:26.827Z,0.9911
2023-04-15T19:04:29.847Z,1.0034
2023-04-15T19:05:32.667Z,1.1871
2023-04-15T19:06:35.610Z,1.0253
2023-04-15T19:07:38.575Z,1.2028
2023-04-15T19:08:41.787Z,1.3054
2023-04-15T19:09:44.479Z,1.0817
2023-04-15T19:10:47.403Z,1.1816
2023-04-15T19:11:50.440Z,1.2413
2023-04-15T19:12:53.345Z,1.0498
2023-04-15T19:13:56.297Z,1.2546
2023-04-15T19:14:59.228Z,1.1738
2023-04-15T19:16:02.161Z,1.1944
2023-04-15T19:17:05.180Z,1.2527
2023-04-15T19:18:08.110Z,1.1781
2023-04-15T19:19:11.041Z,1.2967
2023-04-15T19:20:13.942Z,1.5236
2023-04-15T19:21:16.924Z,1.6280
2023-04-15T19:22:19.864Z,1.6344
2023-04-15T19:23:22.774Z,2.0849
2023-04-15T19:24:25.744Z,2.2459
2023-04-15T19:25:28.672Z,2.1201
2023-04-15T19:26:31.623Z,2.1158
2023-04-15T19:27:34.593Z,2.2811
2023-04-15T19:28:37.528Z,2.2145
2023-04-15T19:29:40.479Z,2.4761
2023-04-15T19:30:43.456Z,2.5582
2023-04-15T19:31:46.367Z,2.7911
2023-04-15T19:32:49.370Z,2.8162
2023-04-15T19:33:52.260Z,2.9174
2023-04-15T19:34:55.240Z,2.2735
2023-04-15T19:35:58.171Z,1.9234
2023-04-15T19:37:01.135Z,1.6908
2023-04-15T19:38:04.070Z,1.6729
2023-04-15T19:39:07.155Z,1.4692
2023-04-15T19:40:09.989Z,1.4938
2023-04-15T19:41:12.917Z,1.6456
2023-04-15T19:42:16.066Z,1.6761
2023-04-15T19:43:18.830Z,1.5917
2023-04-15T19:44:21.767Z,1.8041
2023-04-15T19:45:24.721Z,1.9036
2023-04-15T19:46:27.903Z,2.1483
2023-04-15T19:47:30.699Z,2.1599
2023-04-15T19:48:33.582Z,2.3337
2023-04-15T19:49:36.602Z,2.4214
2023-04-15T19:50:39.547Z,2.4938
2023-04-15T19:51:42.480Z,2.5136
2023-04-15T19:52:45.423Z,2.5160
2023-04-15T19:53:48.481Z,2.2314
2023-04-15T19:54:51.318Z,2.5907
2023-04-15T19:55:54.265Z,2.3069
2023-04-15T19:56:57.205Z,1.8369
2023-04-15T19:58:00.156Z,1.7123
2023-04-15T19:59:03.204Z,2.0405
2023-04-15T20:00:06.058Z,2.0254
2023-04-15T20:01:09.043Z,1.8675
2023-04-15T20:02:12.047Z,2.0363
2023-04-15T20:03:14.988Z,1.9001